• Join FlightAware (Why Join?)
  • Login
  • US Flag 
06:41AM EDT


 

Airport Tracker/Info


-or-


 

Live Flight TrackerFlight Track Log ✈ JZA8557 ✈ 19-Sep-2013 ✈ CYYC - CYYJ

Flight Track Log - Related Links

Times and Time Zones

All times are in EDT time to prevent confusion due to time zone crossing. See the JZA8557 flight status page for this flight to view local times or setup timezone preferences in your user account.

Time Position Orientation Groundspeed Altitude Reporting Facility
EDT Latitude Longitude Course Direction KTS MPH feet Rate Location/Type
09:19PM 51.0333 -114.0500 251° West 170 196 5,500  Level Edmonton Center
09:20PM 50.9833 -114.0333 168° South 200 230 7,200 1,500 Climbing Edmonton Center
09:21PM 50.9333 -114.0833 212° Southwest 240 276 8,600 1,500 Climbing Edmonton Center
09:22PM 50.8667 -114.1500 212° Southwest 260 299 10,200 1,500 Climbing Edmonton Center
09:23PM 50.9803 -114.6464 251° West  Level Estimated
09:23PM 50.8167 -114.2500 232° Southwest 270 311 11,700  Level Edmonton Center
09:24PM 50.9532 -114.7711 251° West  Level Estimated
09:24PM 50.8000 -114.3500 255° West 260 299 13,500  Level Edmonton Center
09:25PM 50.8500 -114.4333 314° West 260 299 14,900 1,500 Climbing Edmonton Center
09:26PM 50.8667 -114.5500 283° West 260 299 16,500 1,320 Climbing Edmonton Center
09:27PM 50.9000 -114.6667 294° West 260 299 17,600 1,140 Climbing Edmonton Center
09:28PM 50.9167 -114.7833 283° West 260 299 18,800 1,140 Climbing Edmonton Center
09:29PM 50.9000 -114.8833 255° West 260 299 19,900 960 Climbing Edmonton Center
09:30PM 50.8833 -114.9833 255° West 260 299 20,800 780 Climbing Edmonton Center
09:31PM 50.8500 -115.1167 248° West 260 299 21,500 720 Climbing Edmonton Center
09:32PM 50.8500 -115.2167 270° West 270 311 22,300 720 Climbing Edmonton Center
09:33PM 50.8167 -115.3500 248° West 270 311 23,000 720 Climbing Edmonton Center
09:34PM 50.8000 -115.4500 255° West 280 322 23,800 480 Climbing Edmonton Center
09:35PM 50.7833 -115.5833 259° West 280 322 24,000 60 Climbing Edmonton Center
09:36PM 50.7667 -115.7167 259° West 300 345 24,000  Level Edmonton Center
09:37PM 50.7333 -115.8333 246° West 310 357 24,000  Level Edmonton Center
09:38PM 50.7167 -116.0000 261° West 320 368 24,000  Level Edmonton Center
09:39PM 50.6833 -116.1167 246° West 320 368 24,000  Level Edmonton Center
09:39PM 50.6833 -116.1500 270° West 320 368 24,000  Level Vancouver Center
09:40PM 50.6667 -116.2833 259° West 330 380 24,000  Level Vancouver Center
09:41PM 50.6333 -116.4167 249° West 330 380 24,000  Level Vancouver Center
09:42PM 50.6167 -116.5500 259° West 330 380 24,000  Level Vancouver Center
09:43PM 50.5833 -116.7167 253° West 330 380 24,000  Level Vancouver Center
09:44PM 50.5833 -116.8500 270° West 330 380 24,000  Level Vancouver Center
09:45PM 50.5333 -116.9833 239° Southwest 330 380 24,000  Level Vancouver Center
09:46PM 50.5333 -117.1167 270° West 330 380 24,000  Level Vancouver Center
09:47PM 50.5000 -117.2500 249° West 330 380 24,000  Level Vancouver Center
09:48PM 50.4833 -117.3833 259° West 330 380 24,000  Level Vancouver Center
09:49PM 50.4500 -117.5333 251° West 330 380 24,000  Level Vancouver Center
09:50PM 50.4333 -117.6667 259° West 330 380 24,000  Level Vancouver Center
09:51PM 50.4000 -117.8000 249° West 330 380 24,000  Level Vancouver Center
09:52PM 50.3833 -117.9500 260° West 330 380 24,000  Level Vancouver Center
09:53PM 50.3500 -118.0833 249° West 330 380 24,000  Level Vancouver Center
09:54PM 50.3167 -118.2333 251° West 330 380 24,000  Level Vancouver Center
09:55PM 50.3000 -118.3667 259° West 330 380 24,000  Level Vancouver Center
09:56PM 50.2667 -118.5000 249° West 330 380 24,000  Level Vancouver Center
09:57PM 50.2333 -118.6333 249° West 330 380 24,000  Level Vancouver Center
09:58PM 50.2167 -118.7667 259° West 320 368 24,000  Level Vancouver Center
09:59PM 50.1833 -118.9000 249° West 320 368 24,000  Level Vancouver Center
10:00PM 50.1500 -119.0333 249° West 330 380 24,000  Level Vancouver Center
10:01PM 50.1333 -119.1667 259° West 330 380 24,000  Level Vancouver Center
10:02PM 50.1000 -119.3167 251° West 330 380 24,000  Level Vancouver Center
10:03PM 50.0667 -119.4333 246° West 330 380 24,000  Level Vancouver Center
10:04PM 50.0500 -119.5833 260° West 330 380 24,000  Level Vancouver Center
10:05PM 50.0167 -119.7167 249° West 320 368 24,000  Level Vancouver Center
10:06PM 49.9833 -119.8500 249° West 320 368 24,000  Level Vancouver Center
10:07PM 49.9667 -119.9833 259° West 330 380 24,000  Level Vancouver Center
10:08PM 49.9333 -120.1167 249° West 330 380 24,000  Level Vancouver Center
10:09PM 49.9000 -120.2500 249° West 330 380 24,000  Level Vancouver Center
10:10PM 49.8667 -120.3833 249° West 330 380 24,000  Level Vancouver Center
10:11PM 49.8500 -120.5167 259° West 330 380 24,000  Level Vancouver Center
10:12PM 49.8167 -120.6500 249° West 320 368 24,000  Level Vancouver Center
10:13PM 49.7833 -120.7667 246° West 330 380 24,000  Level Vancouver Center
10:14PM 49.7500 -120.9000 249° West 330 380 24,000  Level Vancouver Center
10:15PM 49.7167 -121.0333 249° West 330 380 24,000  Level Vancouver Center
10:16PM 49.7000 -121.2000 261° West 330 380 24,000  Level Vancouver Center
10:17PM 49.6833 -121.3167 258° West 330 380 24,000  Level Vancouver Center
10:18PM 49.6500 -121.4500 249° West 330 380 24,000  Level Vancouver Center
10:19PM 49.6167 -121.5833 249° West 330 380 24,000  Level Vancouver Center
10:20PM 49.5833 -121.7167 249° West 330 380 24,000  Level Vancouver Center
10:21PM 49.5500 -121.8500 249° West 320 368 24,000  Level Vancouver Center
10:22PM 49.5167 -121.9667 246° West 320 368 24,000  Level Vancouver Center
10:23PM 49.4833 -122.1000 249° West 320 368 24,000  Level Vancouver Center
10:24PM 49.4500 -122.2000 243° Southwest 320 368 24,000  Level Vancouver Center
10:25PM 49.4000 -122.3333 240° Southwest 320 368 24,000 -780 Level Vancouver Center
10:26PM 49.3500 -122.4333 233° Southwest 330 380 22,500 -1,440 Descending Vancouver Center
10:27PM 49.3000 -122.5500 237° Southwest 310 357 21,200 -1,380 Descending Vancouver Center
10:28PM 49.2500 -122.6667 237° Southwest 300 345 19,800 -1,500 Descending Vancouver Center
10:29PM 49.2167 -122.7833 246° West 310 357 18,300 -1,380 Descending Vancouver Center
10:30PM 49.1667 -122.9000 237° Southwest 310 357 17,100 -660 Descending Vancouver Center
10:31PM 49.1167 -123.0167 237° Southwest 300 345 17,000 -540 Descending Vancouver Center
10:32PM 49.0833 -123.0833 233° Southwest 280 322 16,100 -1,380 Descending Vancouver Center
10:33PM 49.0167 -123.1667 219° Southwest 270 311 14,300 -1,620 Descending Vancouver Center
10:34PM 48.9667 -123.2167 213° Southwest 250 288 12,900 -1,500 Descending Vancouver Center
10:35PM 48.9000 -123.2667 206° Southwest 250 288 11,300 -1,500 Descending Vancouver Center
10:36PM 48.8333 -123.3000 198° South 240 276 10,000 -1,380 Descending Vancouver Center
10:37PM 48.7667 -123.3167 189° South 240 276 8,600 -1,500 Descending Vancouver Center
10:38PM 48.7167 -123.3500 204° Southwest 230 265 7,000 -1,680 Descending Vancouver Center
10:39PM 48.6667 -123.3000 147° Southeast 210 242 5,300 -1,680 Descending Vancouver Center
10:40PM 48.6667 -123.2167 90° East 210 242 3,700 -1,200 Descending Vancouver Center
10:41PM 48.6167 -123.2167 180° South 180 207 2,900 -960 Descending Vancouver Center
10:42PM 48.6000 -123.3000 253° West 170 196 1,800 -1,080 Descending Vancouver Center
10:43PM 48.6167 -123.3500 297° West 170 196 800 -840 Descending Vancouver Center
10:44PM 48.6167 -123.4000 270° West 120 138 200 -600 Descending Vancouver Center